createdAt,value
2019-01-08T00:01:22.776Z,83.05
2019-01-08T00:03:52.921Z,83.07
2019-01-08T00:06:23.047Z,83.13
2019-01-08T00:08:53.107Z,83.10
2019-01-08T00:11:23.146Z,82.97
2019-01-08T00:13:53.322Z,82.93
2019-01-08T00:16:24.724Z,82.87
2019-01-08T00:18:54.982Z,82.78
2019-01-08T00:21:25.054Z,82.58
2019-01-08T00:23:55.108Z,82.37
2019-01-08T00:26:25.250Z,82.29
2019-01-08T00:28:55.424Z,82.17
2019-01-08T00:31:25.625Z,81.95
2019-01-08T00:33:55.689Z,81.92
2019-01-08T00:36:25.737Z,81.88
2019-01-08T00:38:55.910Z,81.76
2019-01-08T00:41:26.029Z,81.73
2019-01-08T00:43:56.108Z,81.74
2019-01-08T00:46:26.262Z,81.74
2019-01-08T00:48:56.329Z,81.69
2019-01-08T00:51:26.477Z,81.63
2019-01-08T00:53:56.533Z,81.58
2019-01-08T00:56:28.370Z,81.44
2019-01-08T00:58:58.505Z,81.21
2019-01-08T01:01:28.719Z,81.00
2019-01-08T01:03:58.869Z,80.74
2019-01-08T01:06:29.015Z,80.56
2019-01-08T01:08:59.167Z,80.40
2019-01-08T01:11:29.321Z,80.37
2019-01-08T01:13:59.488Z,80.26
2019-01-08T01:16:29.609Z,80.11
2019-01-08T01:19:03.419Z,80.45
2019-01-08T01:21:33.505Z,80.92
2019-01-08T01:24:05.172Z,81.26
2019-01-08T01:26:35.326Z,81.46
2019-01-08T01:29:05.515Z,81.57
2019-01-08T01:31:35.697Z,81.69
2019-01-08T01:34:06.683Z,81.81
2019-01-08T01:36:36.828Z,81.99
2019-01-08T01:39:07.964Z,82.15
2019-01-08T01:41:38.108Z,82.33
2019-01-08T01:44:08.318Z,82.45
2019-01-08T01:46:38.471Z,82.52
2019-01-08T01:49:08.601Z,82.68
2019-01-08T01:51:38.828Z,82.88
2019-01-08T01:54:08.872Z,83.03
2019-01-08T01:56:38.940Z,82.89
2019-01-08T01:59:09.239Z,83.63
2019-01-08T02:01:39.442Z,83.98
2019-01-08T02:04:09.566Z,84.54
2019-01-08T02:06:57.294Z,84.88
2019-01-08T02:09:27.393Z,84.73
2019-01-08T02:11:57.607Z,84.82
2019-01-08T02:14:27.649Z,84.78
2019-01-08T02:17:02.964Z,84.69
2019-01-08T02:19:33.070Z,84.62
2019-01-08T02:22:03.187Z,84.53
2019-01-08T02:24:41.597Z,84.36
2019-01-08T02:27:12.223Z,84.20
2019-01-08T02:29:42.344Z,83.98
2019-01-08T02:32:22.007Z,83.71
2019-01-08T02:34:52.184Z,83.39
2019-01-08T02:37:22.249Z,83.11
2019-01-08T02:39:52.375Z,82.85
2019-01-08T02:42:22.558Z,82.59
2019-01-08T02:45:08.107Z,82.33
2019-01-08T02:47:45.451Z,82.11
2019-01-08T02:50:15.613Z,81.65
2019-01-08T02:52:45.786Z,81.24
2019-01-08T02:55:15.851Z,80.97
2019-01-08T02:57:46.066Z,80.81
2019-01-08T03:00:19.955Z,80.79
2019-01-08T03:03:03.364Z,80.67
2019-01-08T03:05:33.527Z,80.57
2019-01-08T03:08:06.533Z,80.53
2019-01-08T03:10:36.665Z,80.45
2019-01-08T03:13:06.999Z,80.23
2019-01-08T03:15:37.047Z,80.20
2019-01-08T03:18:24.031Z,80.25
2019-01-08T03:20:54.285Z,80.11
2019-01-08T03:23:24.576Z,79.95
2019-01-08T03:25:54.690Z,79.87
2019-01-08T03:28:24.912Z,79.88
2019-01-08T03:30:55.103Z,79.92
2019-01-08T03:33:25.264Z,80.01
2019-01-08T03:35:55.389Z,79.91
2019-01-08T03:38:38.475Z,79.78
2019-01-08T03:41:08.765Z,79.80
2019-01-08T03:43:38.977Z,79.59
2019-01-08T03:46:09.123Z,79.56
2019-01-08T03:48:39.360Z,79.56
2019-01-08T03:51:09.523Z,79.27
2019-01-08T03:53:39.786Z,79.20
2019-01-08T03:56:09.928Z,79.24
2019-01-08T03:58:52.954Z,79.26
2019-01-08T04:01:24.419Z,79.19
2019-01-08T04:03:54.582Z,79.10
2019-01-08T04:06:24.815Z,78.71
2019-01-08T04:08:54.958Z,78.65
2019-01-08T04:11:25.064Z,78.61
2019-01-08T04:13:57.548Z,78.59
2019-01-08T04:16:34.824Z,78.44
2019-01-08T04:23:49.635Z,78.46
2019-01-08T04:26:25.788Z,78.71
2019-01-08T04:28:59.118Z,78.69
2019-01-08T04:31:29.331Z,78.58
2019-01-08T04:34:07.780Z,78.66
2019-01-08T04:36:36.745Z,78.69
2019-01-08T04:39:12.510Z,78.56
2019-01-08T04:41:48.705Z,78.57
2019-01-08T04:44:20.285Z,78.61
2019-01-08T04:46:50.368Z,78.57
2019-01-08T04:49:31.332Z,78.72
2019-01-08T04:52:01.378Z,79.04
2019-01-08T04:54:31.434Z,79.45
2019-01-08T04:57:04.044Z,79.80
2019-01-08T04:59:58.977Z,79.86
2019-01-08T05:02:35.799Z,79.87
2019-01-08T05:05:06.815Z,79.57
2019-01-08T05:07:36.956Z,79.30
2019-01-08T05:10:07.274Z,79.27
2019-01-08T05:13:04.209Z,78.98
2019-01-08T05:15:37.146Z,78.87
2019-01-08T05:18:10.374Z,78.78
2019-01-08T05:20:40.654Z,78.61
2019-01-08T05:23:10.745Z,78.55
2019-01-08T05:25:43.391Z,78.40
2019-01-08T05:28:27.196Z,78.14
2019-01-08T05:30:58.463Z,78.01
2019-01-08T05:33:28.766Z,77.98
2019-01-08T05:36:01.085Z,77.90
2019-01-08T05:38:31.262Z,77.79
2019-01-08T05:41:01.496Z,77.68
2019-01-08T05:43:36.309Z,77.71
2019-01-08T05:46:29.485Z,77.69
2019-01-08T05:49:01.472Z,77.84
2019-01-08T05:51:31.739Z,78.09
2019-01-08T05:54:01.888Z,78.18
2019-01-08T05:57:01.132Z,78.23
2019-01-08T05:59:43.563Z,78.10
2019-01-08T06:02:13.745Z,77.79
2019-01-08T06:04:43.917Z,77.90
2019-01-08T06:07:47.043Z,78.62
2019-01-08T06:10:33.839Z,79.18
2019-01-08T06:13:25.428Z,79.92
2019-01-08T06:16:19.849Z,80.48
2019-01-08T06:18:50.001Z,81.15
2019-01-08T06:21:35.218Z,81.50
2019-01-08T06:24:16.720Z,81.65
2019-01-08T06:26:49.339Z,81.81
2019-01-08T06:29:19.571Z,82.02
2019-01-08T06:31:49.655Z,82.15
2019-01-08T06:34:19.798Z,82.26
2019-01-08T06:36:59.976Z,82.48
2019-01-08T06:39:45.149Z,82.63
2019-01-08T06:42:15.282Z,82.73
2019-01-08T06:44:45.329Z,82.85
2019-01-08T06:47:15.549Z,83.02
2019-01-08T06:50:17.475Z,83.23
2019-01-08T06:52:55.063Z,83.47
2019-01-08T06:55:25.259Z,83.56
2019-01-08T06:57:55.362Z,83.79
2019-01-08T07:00:33.022Z,83.83
2019-01-08T07:03:02.817Z,83.94
2019-01-08T07:05:32.914Z,84.01
2019-01-08T07:08:26.642Z,84.17
2019-01-08T07:10:56.677Z,84.35
2019-01-08T07:13:32.533Z,84.60
2019-01-08T07:16:02.682Z,84.75
2019-01-08T07:18:32.769Z,84.75
2019-01-08T07:21:02.966Z,84.88
2019-01-08T07:23:46.488Z,84.87
2019-01-08T07:26:16.841Z,84.96
2019-01-08T07:29:00.792Z,85.05
2019-01-08T07:31:31.022Z,85.14
2019-01-08T07:34:02.742Z,85.02
2019-01-08T07:36:32.873Z,84.88
2019-01-08T07:39:11.543Z,84.76
2019-01-08T07:41:45.957Z,84.58
2019-01-08T07:44:21.825Z,84.47
2019-01-08T07:46:51.953Z,84.40
2019-01-08T07:49:22.075Z,84.43
2019-01-08T07:51:52.243Z,84.58
2019-01-08T07:54:22.748Z,84.77
2019-01-08T07:56:58.293Z,84.99
2019-01-08T07:59:38.040Z,85.14
2019-01-08T08:02:08.162Z,85.24
2019-01-08T08:04:38.298Z,85.14
2019-01-08T08:07:08.428Z,85.10
2019-01-08T08:09:38.564Z,85.03
2019-01-08T08:12:08.608Z,84.89
2019-01-08T08:14:38.773Z,84.66
2019-01-08T08:17:11.842Z,84.44
2019-01-08T08:19:55.620Z,84.19
2019-01-08T08:22:25.770Z,84.02
2019-01-08T08:24:56.109Z,83.81
2019-01-08T08:27:32.723Z,83.57
2019-01-08T08:30:07.060Z,83.45
2019-01-08T08:32:41.429Z,83.36
2019-01-08T08:35:20.491Z,83.31
2019-01-08T08:37:50.562Z,83.18
2019-01-08T08:40:20.688Z,83.04
2019-01-08T08:42:50.822Z,82.98
2019-01-08T08:45:21.009Z,82.78
2019-01-08T08:47:51.243Z,82.78
2019-01-08T08:50:50.474Z,82.69
2019-01-08T08:53:20.531Z,82.25
2019-01-08T08:55:50.608Z,82.27
2019-01-08T08:58:43.569Z,81.98
2019-01-08T09:01:13.700Z,81.83
2019-01-08T09:03:52.437Z,81.90
2019-01-08T09:06:25.094Z,82.36
2019-01-08T09:08:57.988Z,82.52
2019-01-08T09:11:28.190Z,82.65
2019-01-08T09:14:03.117Z,82.66
2019-01-08T09:16:39.830Z,82.64
2019-01-08T09:19:19.066Z,82.58
2019-01-08T09:21:49.403Z,82.53
2019-01-08T09:24:19.479Z,82.42
2019-01-08T09:26:52.247Z,82.36
2019-01-08T09:29:36.082Z,82.56
2019-01-08T09:32:06.712Z,83.22
2019-01-08T09:34:43.993Z,83.58
2019-01-08T09:37:22.365Z,83.75
2019-01-08T09:40:10.097Z,83.83
2019-01-08T09:42:40.331Z,83.85
2019-01-08T09:45:10.844Z,83.79
2019-01-08T09:47:41.283Z,83.34
2019-01-08T09:50:26.502Z,82.98
2019-01-08T09:53:04.757Z,82.66
2019-01-08T09:55:36.829Z,82.37
2019-01-08T09:58:10.034Z,82.11
2019-01-08T10:00:40.161Z,81.76
2019-01-08T10:03:11.415Z,81.58
2019-01-08T10:05:50.817Z,81.16
2019-01-08T10:08:33.568Z,80.32
2019-01-08T10:11:03.750Z,80.08
2019-01-08T10:13:33.991Z,79.22
2019-01-08T10:16:04.337Z,78.47
2019-01-08T10:18:36.332Z,77.92
2019-01-08T10:21:30.915Z,77.76
2019-01-08T10:24:02.071Z,77.48
2019-01-08T10:26:32.225Z,77.37
2019-01-08T10:29:02.395Z,76.87
2019-01-08T10:31:32.881Z,76.62
2019-01-08T10:34:03.042Z,76.30
2019-01-08T10:36:33.163Z,76.26
2019-01-08T10:39:19.246Z,76.59
2019-01-08T10:41:49.502Z,77.16
2019-01-08T10:44:19.546Z,77.36
2019-01-08T10:46:49.850Z,77.21
2019-01-08T10:49:20.109Z,76.55
2019-01-08T10:51:50.348Z,76.22
2019-01-08T10:54:20.687Z,75.82
2019-01-08T10:56:51.291Z,76.27
2019-01-08T10:59:29.533Z,78.00
2019-01-08T11:01:59.748Z,79.03
2019-01-08T11:04:29.882Z,79.49
2019-01-08T11:07:00.067Z,79.82
2019-01-08T11:09:30.216Z,80.29
2019-01-08T11:12:00.272Z,80.55
2019-01-08T11:14:59.888Z,80.72
2019-01-08T11:17:45.933Z,80.30
2019-01-08T11:20:16.146Z,79.73
2019-01-08T11:23:09.402Z,79.13
2019-01-08T11:25:44.465Z,78.77
2019-01-08T11:28:14.621Z,78.40
2019-01-08T11:30:44.680Z,78.36
2019-01-08T11:33:14.918Z,77.88
2019-01-08T11:35:57.344Z,75.76
2019-01-08T11:38:36.778Z,75.64
2019-01-08T11:41:14.014Z,75.72
2019-01-08T11:43:45.975Z,75.45
2019-01-08T11:46:16.275Z,75.31
2019-01-08T11:49:04.439Z,75.34
2019-01-08T11:51:41.754Z,75.52
2019-01-08T11:54:17.570Z,74.80
2019-01-08T11:56:49.161Z,74.37
2019-01-08T11:59:23.895Z,73.72
2019-01-08T12:01:57.159Z,74.16
2019-01-08T12:04:25.028Z,75.21
2019-01-08T12:06:55.082Z,76.87
2019-01-08T12:10:29.311Z,77.83
2019-01-08T12:12:27.807Z,78.26
2019-01-08T12:14:57.970Z,78.59
2019-01-08T12:17:29.981Z,78.96
2019-01-08T12:20:00.269Z,79.34
2019-01-08T12:22:30.406Z,79.65
2019-01-08T12:25:29.611Z,79.69
2019-01-08T12:27:59.809Z,79.86
2019-01-08T12:30:30.044Z,79.96
2019-01-08T12:33:00.083Z,79.62
2019-01-08T12:35:30.153Z,79.37
2019-01-08T12:38:00.338Z,78.42
2019-01-08T12:40:48.707Z,77.75
2019-01-08T12:43:18.848Z,77.92
2019-01-08T12:45:49.017Z,78.00
2019-01-08T12:48:19.106Z,78.00
2019-01-08T12:50:49.149Z,77.02
2019-01-08T12:53:19.264Z,75.90
2019-01-08T12:55:49.488Z,75.71
2019-01-08T12:58:22.641Z,75.19
2019-01-08T13:01:03.393Z,75.13
2019-01-08T13:03:33.506Z,75.22
2019-01-08T13:06:03.720Z,75.26
2019-01-08T13:08:33.786Z,75.54
2019-01-08T13:11:07.520Z,75.64
2019-01-08T13:13:37.550Z,75.74
2019-01-08T13:16:07.649Z,75.19
2019-01-08T13:19:00.145Z,73.47
2019-01-08T13:21:37.910Z,72.71
2019-01-08T13:24:08.114Z,72.31
2019-01-08T13:26:38.321Z,72.06
2019-01-08T13:29:08.365Z,71.80
2019-01-08T13:31:39.227Z,71.75
2019-01-08T13:34:24.493Z,71.43
2019-01-08T13:36:54.664Z,71.32
2019-01-08T13:39:27.966Z,71.34
2019-01-08T13:41:58.213Z,71.35
2019-01-08T13:44:37.799Z,71.34
2019-01-08T13:47:09.727Z,71.38
2019-01-08T13:49:40.085Z,71.33
2019-01-08T13:52:17.563Z,71.28
2019-01-08T13:54:55.467Z,71.56
2019-01-08T13:57:31.122Z,72.00
2019-01-08T14:00:01.377Z,72.24
2019-01-08T14:02:32.112Z,72.16
2019-01-08T14:05:22.453Z,72.08
2019-01-08T14:08:20.610Z,71.64
2019-01-08T14:10:56.483Z,71.22
2019-01-08T14:13:38.982Z,71.06
2019-01-08T14:16:17.174Z,71.77
2019-01-08T14:18:52.601Z,72.62
2019-01-08T14:21:22.717Z,73.50
2019-01-08T14:23:53.020Z,74.79
2019-01-08T14:26:23.247Z,75.49
2019-01-08T14:28:53.405Z,75.58
2019-01-08T14:31:26.549Z,75.37
2019-01-08T14:34:05.553Z,74.83
2019-01-08T14:36:35.714Z,74.31
2019-01-08T14:39:07.984Z,74.04
2019-01-08T14:41:38.183Z,73.82
2019-01-08T14:44:08.388Z,73.83
2019-01-08T14:46:38.576Z,73.93
2019-01-08T14:49:14.431Z,73.97
2019-01-08T14:51:49.222Z,74.32
2019-01-08T14:54:19.445Z,75.58
2019-01-08T14:56:49.603Z,76.85
2019-01-08T14:59:21.667Z,77.97
2019-01-08T15:01:53.456Z,78.53
2019-01-08T15:04:25.193Z,78.95
2019-01-08T15:06:55.421Z,79.35
2019-01-08T15:09:26.787Z,79.73
2019-01-08T15:12:09.984Z,79.97
2019-01-08T15:14:40.246Z,79.60
2019-01-08T15:17:12.823Z,79.12
2019-01-08T15:19:50.522Z,78.86
2019-01-08T15:22:20.113Z,78.81
2019-01-08T15:24:53.336Z,78.79
2019-01-08T15:27:34.866Z,78.91
2019-01-08T15:30:09.060Z,78.97
2019-01-08T15:32:39.213Z,79.00
2019-01-08T15:35:09.472Z,78.91
2019-01-08T15:37:51.913Z,78.88
2019-01-08T15:40:22.222Z,78.57
2019-01-08T15:42:59.549Z,78.28
2019-01-08T15:45:29.713Z,78.06
2019-01-08T15:47:59.856Z,77.90
2019-01-08T15:50:30.040Z,77.93
2019-01-08T15:53:01.928Z,77.91
2019-01-08T15:55:32.141Z,77.86
2019-01-08T15:58:02.256Z,77.66
2019-01-08T16:00:32.482Z,77.48
2019-01-08T16:03:14.249Z,77.36
2019-01-08T16:05:44.395Z,77.27
2019-01-08T16:08:37.555Z,77.12
2019-01-08T16:11:07.799Z,77.09
2019-01-08T16:13:37.985Z,76.89
2019-01-08T16:16:19.405Z,76.78
2019-01-08T16:18:59.956Z,76.53
2019-01-08T16:21:35.095Z,76.52
2019-01-08T16:28:01.729Z,77.80
2019-01-08T16:30:50.565Z,78.64
2019-01-08T16:33:38.894Z,79.88
2019-01-08T16:36:12.335Z,80.62
2019-01-08T16:38:54.352Z,80.99
2019-01-08T16:41:37.002Z,81.07
2019-01-08T16:44:07.257Z,81.08
2019-01-08T16:46:44.859Z,81.17
2019-01-08T16:49:32.945Z,81.78
2019-01-08T16:52:13.976Z,81.99
2019-01-08T16:54:43.627Z,82.35
2019-01-08T16:57:27.836Z,82.31
2019-01-08T17:00:01.184Z,82.43
2019-01-08T17:02:36.461Z,82.40
2019-01-08T17:05:44.266Z,82.36
2019-01-08T17:08:24.636Z,82.50
2019-01-08T17:10:55.085Z,82.80
2019-01-08T17:14:37.856Z,82.76
2019-01-08T17:18:02.073Z,82.65
2019-01-08T17:21:11.376Z,82.92
2019-01-08T17:24:03.929Z,82.97
2019-01-08T17:29:45.379Z,83.02
2019-01-08T17:32:49.204Z,83.06
2019-01-08T17:35:30.023Z,83.14
2019-01-08T17:38:11.429Z,83.38
2019-01-08T17:40:54.111Z,83.69
2019-01-08T17:43:47.153Z,84.11
2019-01-08T17:46:31.394Z,83.85
2019-01-08T17:49:05.946Z,83.46
2019-01-08T17:51:59.513Z,83.00
2019-01-08T17:54:40.681Z,82.68
2019-01-08T17:57:44.536Z,82.22
2019-01-08T18:03:23.311Z,81.97
2019-01-08T18:06:45.823Z,82.34
2019-01-08T18:09:32.554Z,82.74
2019-01-08T18:12:42.697Z,83.13
2019-01-08T18:16:08.104Z,83.15
2019-01-08T18:19:15.341Z,83.16
2019-01-08T18:21:51.217Z,82.53
2019-01-08T18:24:33.183Z,82.93
2019-01-08T18:27:19.933Z,83.02
2019-01-08T18:29:58.318Z,83.13
2019-01-08T18:32:48.706Z,83.30
2019-01-08T18:35:37.494Z,83.45
2019-01-08T18:38:23.489Z,83.60
2019-01-08T18:40:58.785Z,83.54
2019-01-08T18:43:33.029Z,83.53
2019-01-08T18:46:03.286Z,83.56
2019-01-08T18:48:50.439Z,83.58
2019-01-08T18:51:44.879Z,83.59
2019-01-08T18:54:15.224Z,83.73
2019-01-08T18:56:45.613Z,83.79
2019-01-08T18:59:35.619Z,83.77
2019-01-08T19:02:15.069Z,83.77
2019-01-08T19:04:47.228Z,83.84
2019-01-08T19:07:26.867Z,83.66
2019-01-08T19:10:38.349Z,83.70
2019-01-08T19:13:10.938Z,83.71
2019-01-08T19:15:41.597Z,83.61
2019-01-08T19:18:12.029Z,83.45
2019-01-08T19:21:32.047Z,83.17
2019-01-08T19:24:07.712Z,83.05
2019-01-08T19:26:43.293Z,83.02
2019-01-08T19:29:47.977Z,82.73
2019-01-08T19:32:30.451Z,82.23
2019-01-08T19:35:31.213Z,81.98
2019-01-08T19:37:55.330Z,82.28
2019-01-08T19:40:37.288Z,82.30
2019-01-08T19:43:07.742Z,82.45
2019-01-08T19:46:07.899Z,82.62
2019-01-08T19:48:46.150Z,82.74
2019-01-08T19:51:34.829Z,82.87
2019-01-08T19:54:27.980Z,82.93
2019-01-08T19:57:00.998Z,82.93
2019-01-08T19:59:42.155Z,82.82
2019-01-08T20:02:29.981Z,82.70
2019-01-08T20:05:16.296Z,82.72
2019-01-08T20:07:51.510Z,82.88
2019-01-08T20:10:53.894Z,83.06
2019-01-08T20:13:40.266Z,83.27
2019-01-08T20:17:30.889Z,83.48
2019-01-08T20:20:44.773Z,83.66
2019-01-08T20:23:30.038Z,83.59
2019-01-08T20:26:42.352Z,83.61
2019-01-08T20:29:10.296Z,83.53
2019-01-08T20:32:06.003Z,83.61
2019-01-08T20:34:54.524Z,83.46
2019-01-08T20:37:24.912Z,83.45
2019-01-08T20:39:55.359Z,83.37
2019-01-08T20:45:57.408Z,83.13
2019-01-08T20:52:33.416Z,82.81
2019-01-08T20:55:35.364Z,82.69
2019-01-08T20:58:07.510Z,82.63
2019-01-08T21:00:38.358Z,82.64
2019-01-08T21:03:10.686Z,82.56
2019-01-08T21:05:51.649Z,82.41
2019-01-08T21:08:32.964Z,82.25
2019-01-08T21:11:03.307Z,82.11
2019-01-08T21:13:33.584Z,82.06
2019-01-08T21:16:03.839Z,81.93
2019-01-08T21:18:42.270Z,81.82
2019-01-08T21:21:24.891Z,81.94
2019-01-08T21:23:55.380Z,81.80
2019-01-08T21:26:54.441Z,81.90
2019-01-08T21:29:34.797Z,81.86
2019-01-08T21:32:14.307Z,81.79
2019-01-08T21:34:44.801Z,81.72
2019-01-08T21:37:15.203Z,81.62
2019-01-08T21:39:47.019Z,81.70
2019-01-08T21:42:17.390Z,81.84
2019-01-08T21:44:53.452Z,81.95
2019-01-08T21:47:33.456Z,82.07
2019-01-08T21:50:03.915Z,82.09
2019-01-08T21:52:34.162Z,81.70
2019-01-08T21:55:04.478Z,81.93
2019-01-08T21:57:34.783Z,82.20
2019-01-08T22:00:05.905Z,82.44
2019-01-08T22:02:36.141Z,82.62
2019-01-08T22:05:22.984Z,82.68
2019-01-08T22:07:53.471Z,82.67
2019-01-08T22:10:23.845Z,82.63
2019-01-08T22:12:54.259Z,82.71
2019-01-08T22:15:24.602Z,82.79
2019-01-08T22:17:55.083Z,82.84
2019-01-08T22:20:40.133Z,82.90
2019-01-08T22:23:19.635Z,82.90
2019-01-08T22:25:49.939Z,82.78
2019-01-08T22:28:20.132Z,82.84
2019-01-08T22:30:54.015Z,82.86
2019-01-08T22:34:00.729Z,82.97
2019-01-08T22:36:32.526Z,82.92
2019-01-08T22:39:05.941Z,82.83
2019-01-08T22:41:36.471Z,82.63
2019-01-08T22:44:13.449Z,82.25
2019-01-08T22:46:43.632Z,81.84
2019-01-08T22:49:28.090Z,81.02
2019-01-08T22:51:58.581Z,80.76
2019-01-08T22:54:28.746Z,80.51
2019-01-08T22:56:58.998Z,80.43
2019-01-08T22:59:40.277Z,80.57
2019-01-08T23:02:21.842Z,80.61
2019-01-08T23:05:17.288Z,80.58
2019-01-08T23:07:53.690Z,80.50
2019-01-08T23:10:23.935Z,80.47
2019-01-08T23:12:54.364Z,80.34
2019-01-08T23:15:28.658Z,80.05
2019-01-08T23:18:11.811Z,79.90
2019-01-08T23:20:56.946Z,79.96
2019-01-08T23:23:27.238Z,79.95
2019-01-08T23:25:57.428Z,80.01
2019-01-08T23:28:29.711Z,80.08
2019-01-08T23:31:12.231Z,80.12
2019-01-08T23:33:51.993Z,80.10
2019-01-08T23:36:23.474Z,79.95
2019-01-08T23:40:33.832Z,79.76
2019-01-08T23:42:49.596Z,79.64
2019-01-08T23:45:22.682Z,79.49
2019-01-08T23:47:53.000Z,79.39
2019-01-08T23:50:23.256Z,79.43
2019-01-08T23:53:07.504Z,79.64
2019-01-08T23:55:50.849Z,79.97
2019-01-08T23:58:22.112Z,80.26
